Grant, NE

1:56 PM MST on January 25, 2015 (GMT -0700)
Sidney Municipal | Change Station
CLOSE
Current Station
Airport
Location: Sidney,
Elevation: 4304 ft
Nearby Weather Stations

Elev 4304 ft 41.10 °N, 102.99 °W | Updated 1 hour ago

Clear
Clear
50 °F
Feels Like 50 °F
N
21
Wind Variable Wind from NW
Gusts 32 mph

Today
High -- | Low -- °F
--% Chance of Precip.
Yesterday
High -- | Low -- °F
Precip. -- in
7:03 AM 4:55 PM
Waxing Crescent, 35% visible
Pressure 30.08 in
Visibility 10.0 miles
Clouds Mostly Cloudy 7000 ft
Overcast 8000 ft
Dew Point 30 °F
Humidity 46%
Rainfall 0.00 in
Snow Depth Not available.
UV 1 out of 12
Pollen .10 out of 12
Air Quality Not available.
Flu Activity Not available.
METAR KSNY 251953Z AUTO 31018G28KT 10SM BKN070 OVC080 10/M01 A3008 RMK AO2 PK WND 31028/1944 SLP186 T01001011

More Conditions Fewer Conditions

Pressure 30.08 in
Visibility 10.0 miles
Clouds Mostly Cloudy 7000 ft
Overcast 8000 ft
Dew Point 30 °F
Humidity 46%
Rainfall 0.00 in
Snow Depth Not available.
UV 1 out of 12
Pollen .10 out of 12
Air Quality Not available.
Flu Activity Not available.
METAR KSNY 251953Z AUTO 31018G28KT 10SM BKN070 OVC080 10/M01 A3008 RMK AO2 PK WND 31028/1944 SLP186 T01001011

More Conditions Fewer Conditions

10-Day Weather Forecast

Almanac

Astronomy

Jan. 25, 2015 Rise Set
Actual Time
Civil Twilight
Nautical Twilight
Astronomical Twilight
Moon
Length of Visible Light
Length of Day
Tomorrow will be .
, % of the Moon is Illuminated

Today's Extremes

State Highs State Lows

Community

WunderPhotos

Upload Photos

1,790,041 photos uploaded!

WunderBlogs® & News

Nearby

Air Quality

  Air Quality AQ Index Pollutant
Not available.

Snow Depth

Station Depth Elevation

Earthquake Activity

City Distance Mag. Time & Date
Minimum magnitude displayed is 2.5.

Coastal Water Temperatures

Place Temperature

Nearby Weather Stations